sensor_id;sensor_type;location;lat;lon;timestamp;temperature;humidity
39033;DHT22;24794;51.982;5.878;2023-04-03T00:00:46;6.90;98.10
39033;DHT22;24794;51.982;5.878;2023-04-03T00:01:46;6.90;98.10
39033;DHT22;24794;51.982;5.878;2023-04-03T00:02:47;6.90;98.10
39033;DHT22;24794;51.982;5.878;2023-04-03T00:03:47;6.90;98.00
39033;DHT22;24794;51.982;5.878;2023-04-03T00:04:48;6.90;98.00
39033;DHT22;24794;51.982;5.878;2023-04-03T00:05:49;6.80;97.90
39033;DHT22;24794;51.982;5.878;2023-04-03T00:06:49;6.80;98.00
39033;DHT22;24794;51.982;5.878;2023-04-03T00:07:50;6.80;98.00
39033;DHT22;24794;51.982;5.878;2023-04-03T00:08:51;6.80;98.00
39033;DHT22;24794;51.982;5.878;2023-04-03T00:09:52;6.80;98.00
39033;DHT22;24794;51.982;5.878;2023-04-03T00:10:52;6.80;98.10
39033;DHT22;24794;51.982;5.878;2023-04-03T00:11:53;6.80;98.10
39033;DHT22;24794;51.982;5.878;2023-04-03T00:12:54;6.80;98.00
39033;DHT22;24794;51.982;5.878;2023-04-03T00:13:54;6.80;98.00
39033;DHT22;24794;51.982;5.878;2023-04-03T00:14:55;6.70;98.00
39033;DHT22;24794;51.982;5.878;2023-04-03T00:15:56;6.70;97.90
39033;DHT22;24794;51.982;5.878;2023-04-03T00:16:56;6.70;97.90
39033;DHT22;24794;51.982;5.878;2023-04-03T00:17:57;6.60;98.00
39033;DHT22;24794;51.982;5.878;2023-04-03T00:18:57;6.60;98.00
39033;DHT22;24794;51.982;5.878;2023-04-03T00:19:58;6.60;98.10
39033;DHT22;24794;51.982;5.878;2023-04-03T00:20:58;6.60;98.10
39033;DHT22;24794;51.982;5.878;2023-04-03T00:21:59;6.60;98.10
39033;DHT22;24794;51.982;5.878;2023-04-03T00:23:00;6.50;98.20
39033;DHT22;24794;51.982;5.878;2023-04-03T00:24:01;6.50;98.20
39033;DHT22;24794;51.982;5.878;2023-04-03T00:25:03;6.50;98.20
39033;DHT22;24794;51.982;5.878;2023-04-03T00:26:03;6.50;98.60
39033;DHT22;24794;51.982;5.878;2023-04-03T00:27:04;6.60;98.40
39033;DHT22;24794;51.982;5.878;2023-04-03T00:28:05;6.60;98.40
39033;DHT22;24794;51.982;5.878;2023-04-03T00:29:05;6.60;98.50
39033;DHT22;24794;51.982;5.878;2023-04-03T00:30:08;6.60;98.50
39033;DHT22;24794;51.982;5.878;2023-04-03T00:31:09;6.50;98.40
39033;DHT22;24794;51.982;5.878;2023-04-03T00:32:09;6.50;98.40
39033;DHT22;24794;51.982;5.878;2023-04-03T00:33:13;6.50;98.40
39033;DHT22;24794;51.982;5.878;2023-04-03T00:34:13;6.50;98.40
39033;DHT22;24794;51.982;5.878;2023-04-03T00:35:14;6.50;98.40
39033;DHT22;24794;51.982;5.878;2023-04-03T00:36:16;6.50;98.50
39033;DHT22;24794;51.982;5.878;2023-04-03T00:37:16;6.40;98.50
39033;DHT22;24794;51.982;5.878;2023-04-03T00:38:18;6.40;98.50
39033;DHT22;24794;51.982;5.878;2023-04-03T00:39:18;6.40;98.50
39033;DHT22;24794;51.982;5.878;2023-04-03T00:40:20;6.40;98.50
39033;DHT22;24794;51.982;5.878;2023-04-03T00:41:20;6.40;98.50
39033;DHT22;24794;51.982;5.878;2023-04-03T00:42:21;6.30;98.50
39033;DHT22;24794;51.982;5.878;2023-04-03T00:43:24;6.30;98.50
39033;DHT22;24794;51.982;5.878;2023-04-03T00:45:39;6.30;98.60
39033;DHT22;24794;51.982;5.878;2023-04-03T00:46:40;6.30;98.70
39033;DHT22;24794;51.982;5.878;2023-04-03T00:47:41;6.30;98.70
39033;DHT22;24794;51.982;5.878;2023-04-03T00:48:44;6.30;98.70
39033;DHT22;24794;51.982;5.878;2023-04-03T00:49:45;6.30;98.80
39033;DHT22;24794;51.982;5.878;2023-04-03T00:50:46;6.30;98.80
39033;DHT22;24794;51.982;5.878;2023-04-03T00:51:47;6.40;98.80
39033;DHT22;24794;51.982;5.878;2023-04-03T00:52:48;6.30;98.80
39033;DHT22;24794;51.982;5.878;2023-04-03T00:53:54;6.30;98.80
39033;DHT22;24794;51.982;5.878;2023-04-03T00:54:59;6.30;98.80
39033;DHT22;24794;51.982;5.878;2023-04-03T00:56:01;6.30;98.80
39033;DHT22;24794;51.982;5.878;2023-04-03T00:57:03;6.30;98.80
39033;DHT22;24794;51.982;5.878;2023-04-03T00:58:06;6.30;98.90
39033;DHT22;24794;51.982;5.878;2023-04-03T00:59:15;6.30;99.00
39033;DHT22;24794;51.982;5.878;2023-04-03T01:00:19;6.30;99.00
39033;DHT22;24794;51.982;5.878;2023-04-03T01:01:25;6.30;99.10
39033;DHT22;24794;51.982;5.878;2023-04-03T01:02:26;6.30;99.10
39033;DHT22;24794;51.982;5.878;2023-04-03T01:03:27;6.30;99.10
39033;DHT22;24794;51.982;5.878;2023-04-03T01:04:35;6.40;99.20
39033;DHT22;24794;51.982;5.878;2023-04-03T01:05:40;6.30;99.10
39033;DHT22;24794;51.982;5.878;2023-04-03T01:06:40;6.30;99.20
39033;DHT22;24794;51.982;5.878;2023-04-03T01:07:41;6.30;99.20
39033;DHT22;24794;51.982;5.878;2023-04-03T01:08:42;6.30;99.30
39033;DHT22;24794;51.982;5.878;2023-04-03T01:09:44;6.30;99.30
39033;DHT22;24794;51.982;5.878;2023-04-03T01:10:44;6.30;99.30
39033;DHT22;24794;51.982;5.878;2023-04-03T01:11:45;6.30;99.40
39033;DHT22;24794;51.982;5.878;2023-04-03T01:12:48;6.30;99.40
39033;DHT22;24794;51.982;5.878;2023-04-03T01:13:49;6.30;99.40
39033;DHT22;24794;51.982;5.878;2023-04-03T01:14:52;6.30;99.40
39033;DHT22;24794;51.982;5.878;2023-04-03T01:15:54;6.30;99.40
39033;DHT22;24794;51.982;5.878;2023-04-03T01:16:55;6.30;99.50
39033;DHT22;24794;51.982;5.878;2023-04-03T01:17:58;6.30;99.50
39033;DHT22;24794;51.982;5.878;2023-04-03T01:19:01;6.30;99.50
39033;DHT22;24794;51.982;5.878;2023-04-03T01:21:36;6.30;99.70
39033;DHT22;24794;51.982;5.878;2023-04-03T01:24:04;6.30;99.70
39033;DHT22;24794;51.982;5.878;2023-04-03T01:25:09;6.30;99.70
39033;DHT22;24794;51.982;5.878;2023-04-03T01:26:10;6.30;99.70
39033;DHT22;24794;51.982;5.878;2023-04-03T01:27:12;6.20;99.70
39033;DHT22;24794;51.982;5.878;2023-04-03T01:28:15;6.20;99.80
39033;DHT22;24794;51.982;5.878;2023-04-03T01:29:16;6.20;99.80
39033;DHT22;24794;51.982;5.878;2023-04-03T01:30:19;6.20;99.80
39033;DHT22;24794;51.982;5.878;2023-04-03T01:31:54;6.20;99.90
39033;DHT22;24794;51.982;5.878;2023-04-03T01:32:54;6.20;99.90
39033;DHT22;24794;51.982;5.878;2023-04-03T01:33:55;6.20;99.90
39033;DHT22;24794;51.982;5.878;2023-04-03T01:34:56;6.20;99.90
39033;DHT22;24794;51.982;5.878;2023-04-03T01:35:57;6.20;99.90
39033;DHT22;24794;51.982;5.878;2023-04-03T01:36:57;6.20;99.90
39033;DHT22;24794;51.982;5.878;2023-04-03T01:37:58;6.20;99.90
39033;DHT22;24794;51.982;5.878;2023-04-03T01:38:59;6.20;99.90
39033;DHT22;24794;51.982;5.878;2023-04-03T01:40:00;6.20;99.90
39033;DHT22;24794;51.982;5.878;2023-04-03T01:41:00;6.20;99.90
39033;DHT22;24794;51.982;5.878;2023-04-03T01:42:01;6.20;99.90
39033;DHT22;24794;51.982;5.878;2023-04-03T01:43:02;6.20;99.90
39033;DHT22;24794;51.982;5.878;2023-04-03T01:44:02;6.20;99.90
39033;DHT22;24794;51.982;5.878;2023-04-03T01:45:04;6.30;99.90
39033;DHT22;24794;51.982;5.878;2023-04-03T01:46:05;6.20;99.90
39033;DHT22;24794;51.982;5.878;2023-04-03T01:47:06;6.20;99.90
39033;DHT22;24794;51.982;5.878;2023-04-03T01:48:07;6.20;99.90
39033;DHT22;24794;51.982;5.878;2023-04-03T01:49:08;6.20;99.90
39033;DHT22;24794;51.982;5.878;2023-04-03T01:50:08;6.20;99.90
39033;DHT22;24794;51.982;5.878;2023-04-03T01:51:09;6.20;99.90
39033;DHT22;24794;51.982;5.878;2023-04-03T01:52:10;6.20;99.90
39033;DHT22;24794;51.982;5.878;2023-04-03T01:53:11;6.10;99.90
39033;DHT22;24794;51.982;5.878;2023-04-03T01:54:12;6.10;99.90
39033;DHT22;24794;51.982;5.878;2023-04-03T01:55:12;6.10;99.90
39033;DHT22;24794;51.982;5.878;2023-04-03T01:56:13;6.10;99.90
39033;DHT22;24794;51.982;5.878;2023-04-03T01:57:13;6.00;99.90
39033;DHT22;24794;51.982;5.878;2023-04-03T01:58:15;6.00;99.90
39033;DHT22;24794;51.982;5.878;2023-04-03T01:59:16;6.00;99.90
39033;DHT22;24794;51.982;5.878;2023-04-03T02:00:18;6.00;99.90
39033;DHT22;24794;51.982;5.878;2023-04-03T02:01:18;6.00;99.90
39033;DHT22;24794;51.982;5.878;2023-04-03T02:02:19;6.00;99.90
39033;DHT22;24794;51.982;5.878;2023-04-03T02:03:20;5.90;99.90
39033;DHT22;24794;51.982;5.878;2023-04-03T02:04:21;6.00;99.90
39033;DHT22;24794;51.982;5.878;2023-04-03T02:05:21;5.90;99.90
39033;DHT22;24794;51.982;5.878;2023-04-03T02:06:22;5.90;99.90
39033;DHT22;24794;51.982;5.878;2023-04-03T02:07:22;5.90;99.90
39033;DHT22;24794;51.982;5.878;2023-04-03T02:08:23;5.90;99.90
39033;DHT22;24794;51.982;5.878;2023-04-03T02:09:23;5.90;99.90
39033;DHT22;24794;51.982;5.878;2023-04-03T02:10:24;5.90;99.90
39033;DHT22;24794;51.982;5.878;2023-04-03T02:11:25;5.90;99.90
39033;DHT22;24794;51.982;5.878;2023-04-03T02:12:25;5.90;99.90
39033;DHT22;24794;51.982;5.878;2023-04-03T02:13:26;5.90;99.90
39033;DHT22;24794;51.982;5.878;2023-04-03T02:14:26;5.90;99.90
39033;DHT22;24794;51.982;5.878;2023-04-03T02:15:27;5.90;99.90
39033;DHT22;24794;51.982;5.878;2023-04-03T02:16:28;5.90;99.90
39033;DHT22;24794;51.982;5.878;2023-04-03T02:17:29;5.90;99.90
39033;DHT22;24794;51.982;5.878;2023-04-03T02:18:30;5.80;99.90
39033;DHT22;24794;51.982;5.878;2023-04-03T02:19:31;5.80;99.90
39033;DHT22;24794;51.982;5.878;2023-04-03T02:20:31;5.80;99.90
39033;DHT22;24794;51.982;5.878;2023-04-03T02:21:32;5.80;99.90
39033;DHT22;24794;51.982;5.878;2023-04-03T02:22:34;5.70;99.90
39033;DHT22;24794;51.982;5.878;2023-04-03T02:23:34;5.70;99.90
39033;DHT22;24794;51.982;5.878;2023-04-03T02:24:37;5.70;99.90
39033;DHT22;24794;51.982;5.878;2023-04-03T02:25:39;5.70;99.90
39033;DHT22;24794;51.982;5.878;2023-04-03T02:26:40;5.70;99.90
39033;DHT22;24794;51.982;5.878;2023-04-03T02:27:40;5.70;99.90
39033;DHT22;24794;51.982;5.878;2023-04-03T02:28:41;5.70;99.90
39033;DHT22;24794;51.982;5.878;2023-04-03T02:29:42;5.70;99.90
39033;DHT22;24794;51.982;5.878;2023-04-03T02:30:42;5.70;99.90
39033;DHT22;24794;51.982;5.878;2023-04-03T02:31:43;5.70;99.90
39033;DHT22;24794;51.982;5.878;2023-04-03T02:32:44;5.80;99.90
39033;DHT22;24794;51.982;5.878;2023-04-03T02:33:44;5.70;99.90
39033;DHT22;24794;51.982;5.878;2023-04-03T02:34:45;5.70;99.90
39033;DHT22;24794;51.982;5.878;2023-04-03T02:35:45;5.80;99.90
39033;DHT22;24794;51.982;5.878;2023-04-03T02:36:53;5.80;99.90
39033;DHT22;24794;51.982;5.878;2023-04-03T02:37:53;5.80;99.90
39033;DHT22;24794;51.982;5.878;2023-04-03T02:38:54;5.80;99.90
39033;DHT22;24794;51.982;5.878;2023-04-03T02:39:55;5.80;99.90
39033;DHT22;24794;51.982;5.878;2023-04-03T02:41:22;5.80;99.90
39033;DHT22;24794;51.982;5.878;2023-04-03T02:42:22;5.80;99.90
39033;DHT22;24794;51.982;5.878;2023-04-03T02:43:23;5.70;99.90
39033;DHT22;24794;51.982;5.878;2023-04-03T02:44:23;5.70;99.90
39033;DHT22;24794;51.982;5.878;2023-04-03T02:45:24;5.70;99.90
39033;DHT22;24794;51.982;5.878;2023-04-03T02:46:25;5.70;99.90
39033;DHT22;24794;51.982;5.878;2023-04-03T02:47:27;5.70;99.90
39033;DHT22;24794;51.982;5.878;2023-04-03T02:48:28;5.70;99.90
39033;DHT22;24794;51.982;5.878;2023-04-03T02:49:28;5.70;99.90
39033;DHT22;24794;51.982;5.878;2023-04-03T02:50:29;5.70;99.90
39033;DHT22;24794;51.982;5.878;2023-04-03T02:51:30;5.70;99.90
39033;DHT22;24794;51.982;5.878;2023-04-03T02:52:30;5.70;99.90
39033;DHT22;24794;51.982;5.878;2023-04-03T02:53:31;5.70;99.90
39033;DHT22;24794;51.982;5.878;2023-04-03T02:54:31;5.70;99.90
39033;DHT22;24794;51.982;5.878;2023-04-03T02:55:32;5.60;99.90
39033;DHT22;24794;51.982;5.878;2023-04-03T02:56:32;5.60;99.90
39033;DHT22;24794;51.982;5.878;2023-04-03T02:57:33;5.60;99.90
39033;DHT22;24794;51.982;5.878;2023-04-03T02:58:34;5.60;99.90
39033;DHT22;24794;51.982;5.878;2023-04-03T02:59:36;5.60;99.90
39033;DHT22;24794;51.982;5.878;2023-04-03T03:00:37;5.60;99.90
39033;DHT22;24794;51.982;5.878;2023-04-03T03:01:38;5.60;99.90
39033;DHT22;24794;51.982;5.878;2023-04-03T03:02:38;5.60;99.90
39033;DHT22;24794;51.982;5.878;2023-04-03T03:03:39;5.60;99.90
39033;DHT22;24794;51.982;5.878;2023-04-03T03:04:39;5.60;99.90
39033;DHT22;24794;51.982;5.878;2023-04-03T03:05:40;5.60;99.90
39033;DHT22;24794;51.982;5.878;2023-04-03T03:06:41;5.60;99.90
39033;DHT22;24794;51.982;5.878;2023-04-03T03:07:42;5.60;99.90
39033;DHT22;24794;51.982;5.878;2023-04-03T03:08:43;5.60;99.90
39033;DHT22;24794;51.982;5.878;2023-04-03T03:09:43;5.60;99.90
39033;DHT22;24794;51.982;5.878;2023-04-03T03:10:44;5.60;99.90
39033;DHT22;24794;51.982;5.878;2023-04-03T03:11:45;5.60;99.90
39033;DHT22;24794;51.982;5.878;2023-04-03T03:12:45;5.70;99.90
39033;DHT22;24794;51.982;5.878;2023-04-03T03:15:00;5.70;99.90
39033;DHT22;24794;51.982;5.878;2023-04-03T03:16:01;5.70;99.90
39033;DHT22;24794;51.982;5.878;2023-04-03T03:17:01;5.70;99.90
39033;DHT22;24794;51.982;5.878;2023-04-03T03:18:02;5.70;99.90
39033;DHT22;24794;51.982;5.878;2023-04-03T03:19:03;5.70;99.90
39033;DHT22;24794;51.982;5.878;2023-04-03T03:20:06;5.70;99.90
39033;DHT22;24794;51.982;5.878;2023-04-03T03:21:09;5.70;99.90
39033;DHT22;24794;51.982;5.878;2023-04-03T03:22:10;5.70;99.90
39033;DHT22;24794;51.982;5.878;2023-04-03T03:23:11;5.70;99.90
39033;DHT22;24794;51.982;5.878;2023-04-03T03:24:11;5.70;99.90
39033;DHT22;24794;51.982;5.878;2023-04-03T03:25:12;5.70;99.90
39033;DHT22;24794;51.982;5.878;2023-04-03T03:26:12;5.70;99.90
39033;DHT22;24794;51.982;5.878;2023-04-03T03:27:13;5.70;99.90
39033;DHT22;24794;51.982;5.878;2023-04-03T03:28:14;5.70;99.90
39033;DHT22;24794;51.982;5.878;2023-04-03T03:29:15;5.60;99.90
39033;DHT22;24794;51.982;5.878;2023-04-03T03:30:15;5.60;99.90
39033;DHT22;24794;51.982;5.878;2023-04-03T03:31:16;5.60;99.90
39033;DHT22;24794;51.982;5.878;2023-04-03T03:32:16;5.70;99.90
39033;DHT22;24794;51.982;5.878;2023-04-03T03:33:17;5.60;99.90
39033;DHT22;24794;51.982;5.878;2023-04-03T03:34:18;5.60;99.90
39033;DHT22;24794;51.982;5.878;2023-04-03T03:35:19;5.60;99.90
39033;DHT22;24794;51.982;5.878;2023-04-03T03:36:19;5.60;99.90
39033;DHT22;24794;51.982;5.878;2023-04-03T03:37:20;5.60;99.90
39033;DHT22;24794;51.982;5.878;2023-04-03T03:38:21;5.60;99.90
39033;DHT22;24794;51.982;5.878;2023-04-03T03:39:22;5.60;99.90
39033;DHT22;24794;51.982;5.878;2023-04-03T03:40:23;5.60;99.90
39033;DHT22;24794;51.982;5.878;2023-04-03T03:41:24;5.60;99.90
39033;DHT22;24794;51.982;5.878;2023-04-03T03:42:24;5.60;99.90
39033;DHT22;24794;51.982;5.878;2023-04-03T03:43:25;5.60;99.90
39033;DHT22;24794;51.982;5.878;2023-04-03T03:44:26;5.60;99.90
39033;DHT22;24794;51.982;5.878;2023-04-03T03:45:28;5.60;99.90
39033;DHT22;24794;51.982;5.878;2023-04-03T03:46:28;5.50;99.90
39033;DHT22;24794;51.982;5.878;2023-04-03T03:47:29;5.50;99.90
39033;DHT22;24794;51.982;5.878;2023-04-03T03:48:30;5.50;99.90
39033;DHT22;24794;51.982;5.878;2023-04-03T03:49:30;5.50;99.90
39033;DHT22;24794;51.982;5.878;2023-04-03T03:50:31;5.50;99.90
39033;DHT22;24794;51.982;5.878;2023-04-03T03:51:32;5.50;99.90
39033;DHT22;24794;51.982;5.878;2023-04-03T03:52:32;5.50;99.90
39033;DHT22;24794;51.982;5.878;2023-04-03T03:53:33;5.50;99.90
39033;DHT22;24794;51.982;5.878;2023-04-03T03:54:34;5.50;99.90
39033;DHT22;24794;51.982;5.878;2023-04-03T03:55:34;5.50;99.90
39033;DHT22;24794;51.982;5.878;2023-04-03T03:56:35;5.50;99.90
39033;DHT22;24794;51.982;5.878;2023-04-03T03:57:35;5.50;99.90
39033;DHT22;24794;51.982;5.878;2023-04-03T03:58:37;5.40;99.90
39033;DHT22;24794;51.982;5.878;2023-04-03T03:59:38;5.40;99.90
39033;DHT22;24794;51.982;5.878;2023-04-03T04:00:40;5.40;99.90
39033;DHT22;24794;51.982;5.878;2023-04-03T04:01:41;5.40;99.90
39033;DHT22;24794;51.982;5.878;2023-04-03T04:02:42;5.40;99.90
39033;DHT22;24794;51.982;5.878;2023-04-03T04:03:42;5.40;99.90
39033;DHT22;24794;51.982;5.878;2023-04-03T04:04:43;5.40;99.90
39033;DHT22;24794;51.982;5.878;2023-04-03T04:05:43;5.40;99.90
39033;DHT22;24794;51.982;5.878;2023-04-03T04:06:44;5.50;99.90
39033;DHT22;24794;51.982;5.878;2023-04-03T04:07:45;5.50;99.90
39033;DHT22;24794;51.982;5.878;2023-04-03T04:08:45;5.40;99.90
39033;DHT22;24794;51.982;5.878;2023-04-03T04:09:46;5.40;99.90
39033;DHT22;24794;51.982;5.878;2023-04-03T04:10:47;5.40;99.90
39033;DHT22;24794;51.982;5.878;2023-04-03T04:11:47;5.40;99.90
39033;DHT22;24794;51.982;5.878;2023-04-03T04:12:48;5.40;99.90
39033;DHT22;24794;51.982;5.878;2023-04-03T04:13:49;5.40;99.90
39033;DHT22;24794;51.982;5.878;2023-04-03T04:14:49;5.40;99.90
39033;DHT22;24794;51.982;5.878;2023-04-03T04:15:50;5.40;99.90
39033;DHT22;24794;51.982;5.878;2023-04-03T04:16:51;5.40;99.90
39033;DHT22;24794;51.982;5.878;2023-04-03T04:17:51;5.40;99.90
39033;DHT22;24794;51.982;5.878;2023-04-03T04:18:52;5.40;99.90
39033;DHT22;24794;51.982;5.878;2023-04-03T04:19:52;5.40;99.90
39033;DHT22;24794;51.982;5.878;2023-04-03T04:20:53;5.40;99.90
39033;DHT22;24794;51.982;5.878;2023-04-03T04:21:53;5.40;99.90
39033;DHT22;24794;51.982;5.878;2023-04-03T04:22:54;5.40;99.90
39033;DHT22;24794;51.982;5.878;2023-04-03T04:23:54;5.40;99.90
39033;DHT22;24794;51.982;5.878;2023-04-03T04:24:55;5.40;99.90
39033;DHT22;24794;51.982;5.878;2023-04-03T04:25:56;5.40;99.90
39033;DHT22;24794;51.982;5.878;2023-04-03T04:26:56;5.40;99.90
39033;DHT22;24794;51.982;5.878;2023-04-03T04:27:57;5.40;99.90
39033;DHT22;24794;51.982;5.878;2023-04-03T04:28:57;5.40;99.90
39033;DHT22;24794;51.982;5.878;2023-04-03T04:29:58;5.40;99.90
39033;DHT22;24794;51.982;5.878;2023-04-03T04:30:58;5.40;99.90
39033;DHT22;24794;51.982;5.878;2023-04-03T04:31:59;5.30;99.90
39033;DHT22;24794;51.982;5.878;2023-04-03T04:32:59;5.30;99.90
39033;DHT22;24794;51.982;5.878;2023-04-03T04:34:00;5.30;99.90
39033;DHT22;24794;51.982;5.878;2023-04-03T04:35:01;5.40;99.90
39033;DHT22;24794;51.982;5.878;2023-04-03T04:36:01;5.30;99.90
39033;DHT22;24794;51.982;5.878;2023-04-03T04:37:02;5.30;99.90
39033;DHT22;24794;51.982;5.878;2023-04-03T04:38:02;5.30;99.90
39033;DHT22;24794;51.982;5.878;2023-04-03T04:39:03;5.30;99.90
39033;DHT22;24794;51.982;5.878;2023-04-03T04:40:04;5.30;99.90
39033;DHT22;24794;51.982;5.878;2023-04-03T04:41:04;5.30;99.90
39033;DHT22;24794;51.982;5.878;2023-04-03T04:42:05;5.30;99.90
39033;DHT22;24794;51.982;5.878;2023-04-03T04:43:07;5.30;99.90
39033;DHT22;24794;51.982;5.878;2023-04-03T04:44:08;5.30;99.90
39033;DHT22;24794;51.982;5.878;2023-04-03T04:45:09;5.20;99.90
39033;DHT22;24794;51.982;5.878;2023-04-03T04:46:10;5.30;99.90
39033;DHT22;24794;51.982;5.878;2023-04-03T04:47:14;5.20;99.90
39033;DHT22;24794;51.982;5.878;2023-04-03T04:48:14;5.20;99.90
39033;DHT22;24794;51.982;5.878;2023-04-03T04:49:15;5.20;99.90
39033;DHT22;24794;51.982;5.878;2023-04-03T04:50:16;5.20;99.90
39033;DHT22;24794;51.982;5.878;2023-04-03T04:51:16;5.20;99.90
39033;DHT22;24794;51.982;5.878;2023-04-03T04:52:17;5.10;99.90
39033;DHT22;24794;51.982;5.878;2023-04-03T04:53:17;5.10;99.90
39033;DHT22;24794;51.982;5.878;2023-04-03T04:54:18;5.10;99.90
39033;DHT22;24794;51.982;5.878;2023-04-03T04:55:18;5.10;99.90
39033;DHT22;24794;51.982;5.878;2023-04-03T04:56:19;5.10;99.90
39033;DHT22;24794;51.982;5.878;2023-04-03T04:57:21;5.10;99.90
39033;DHT22;24794;51.982;5.878;2023-04-03T04:58:21;5.00;99.90
39033;DHT22;24794;51.982;5.878;2023-04-03T04:59:22;5.00;99.90
39033;DHT22;24794;51.982;5.878;2023-04-03T05:00:22;5.00;99.90
39033;DHT22;24794;51.982;5.878;2023-04-03T05:01:23;5.00;99.90
39033;DHT22;24794;51.982;5.878;2023-04-03T05:02:23;5.00;99.90
39033;DHT22;24794;51.982;5.878;2023-04-03T05:03:24;5.00;99.90
39033;DHT22;24794;51.982;5.878;2023-04-03T05:04:25;5.00;99.90
39033;DHT22;24794;51.982;5.878;2023-04-03T05:05:25;5.00;99.90
39033;DHT22;24794;51.982;5.878;2023-04-03T05:06:26;5.00;99.90
39033;DHT22;24794;51.982;5.878;2023-04-03T05:07:26;5.00;99.90
39033;DHT22;24794;51.982;5.878;2023-04-03T05:08:27;5.00;99.90
39033;DHT22;24794;51.982;5.878;2023-04-03T05:09:27;5.00;99.90
39033;DHT22;24794;51.982;5.878;2023-04-03T05:10:28;5.00;99.90
39033;DHT22;24794;51.982;5.878;2023-04-03T05:11:29;5.00;99.90
39033;DHT22;24794;51.982;5.878;2023-04-03T05:12:30;5.00;99.90
39033;DHT22;24794;51.982;5.878;2023-04-03T05:13:30;5.00;99.90
39033;DHT22;24794;51.982;5.878;2023-04-03T05:14:31;5.00;99.90
39033;DHT22;24794;51.982;5.878;2023-04-03T05:15:31;5.00;99.90
39033;DHT22;24794;51.982;5.878;2023-04-03T05:16:32;4.90;99.90
39033;DHT22;24794;51.982;5.878;2023-04-03T05:17:33;4.90;99.90
39033;DHT22;24794;51.982;5.878;2023-04-03T05:18:33;4.90;99.90
39033;DHT22;24794;51.982;5.878;2023-04-03T05:19:34;4.90;99.90
39033;DHT22;24794;51.982;5.878;2023-04-03T05:20:35;4.90;99.90
39033;DHT22;24794;51.982;5.878;2023-04-03T05:21:37;4.90;99.90
39033;DHT22;24794;51.982;5.878;2023-04-03T05:22:37;4.80;99.90
39033;DHT22;24794;51.982;5.878;2023-04-03T05:23:38;4.80;99.90
39033;DHT22;24794;51.982;5.878;2023-04-03T05:24:38;4.80;99.90
39033;DHT22;24794;51.982;5.878;2023-04-03T05:25:39;4.70;99.90
39033;DHT22;24794;51.982;5.878;2023-04-03T05:26:40;4.70;99.90
39033;DHT22;24794;51.982;5.878;2023-04-03T05:27:41;4.70;99.90
39033;DHT22;24794;51.982;5.878;2023-04-03T05:28:41;4.70;99.90
39033;DHT22;24794;51.982;5.878;2023-04-03T05:29:42;4.70;99.90
39033;DHT22;24794;51.982;5.878;2023-04-03T05:30:44;4.70;99.90
39033;DHT22;24794;51.982;5.878;2023-04-03T05:31:44;4.70;99.90
39033;DHT22;24794;51.982;5.878;2023-04-03T05:32:46;4.60;99.90
39033;DHT22;24794;51.982;5.878;2023-04-03T05:33:47;4.60;99.90
39033;DHT22;24794;51.982;5.878;2023-04-03T05:34:47;4.60;99.90
39033;DHT22;24794;51.982;5.878;2023-04-03T05:35:48;4.60;99.90
39033;DHT22;24794;51.982;5.878;2023-04-03T05:36:49;4.50;99.90
39033;DHT22;24794;51.982;5.878;2023-04-03T05:37:49;4.50;99.90
39033;DHT22;24794;51.982;5.878;2023-04-03T05:38:50;4.50;99.90
39033;DHT22;24794;51.982;5.878;2023-04-03T05:39:51;4.50;99.90
39033;DHT22;24794;51.982;5.878;2023-04-03T05:40:52;4.40;99.90
39033;DHT22;24794;51.982;5.878;2023-04-03T05:41:52;4.40;99.90
39033;DHT22;24794;51.982;5.878;2023-04-03T05:42:53;4.40;99.90
39033;DHT22;24794;51.982;5.878;2023-04-03T05:43:53;4.40;99.90
39033;DHT22;24794;51.982;5.878;2023-04-03T05:44:54;4.40;99.90
39033;DHT22;24794;51.982;5.878;2023-04-03T05:45:55;4.40;99.90
39033;DHT22;24794;51.982;5.878;2023-04-03T05:46:55;4.40;99.90
39033;DHT22;24794;51.982;5.878;2023-04-03T05:47:56;4.40;99.90
39033;DHT22;24794;51.982;5.878;2023-04-03T05:48:56;4.40;99.90
39033;DHT22;24794;51.982;5.878;2023-04-03T05:49:57;4.40;99.90
39033;DHT22;24794;51.982;5.878;2023-04-03T05:50:58;4.40;99.90
39033;DHT22;24794;51.982;5.878;2023-04-03T05:51:59;4.40;99.90
39033;DHT22;24794;51.982;5.878;2023-04-03T05:53:00;4.40;99.90
39033;DHT22;24794;51.982;5.878;2023-04-03T05:54:16;4.40;99.90
39033;DHT22;24794;51.982;5.878;2023-04-03T05:55:18;4.40;99.90
39033;DHT22;24794;51.982;5.878;2023-04-03T05:56:18;4.30;99.90
39033;DHT22;24794;51.982;5.878;2023-04-03T05:57:19;4.30;99.90
39033;DHT22;24794;51.982;5.878;2023-04-03T05:58:20;4.30;99.90
39033;DHT22;24794;51.982;5.878;2023-04-03T05:59:21;4.30;99.90
39033;DHT22;24794;51.982;5.878;2023-04-03T06:00:21;4.30;99.90
39033;DHT22;24794;51.982;5.878;2023-04-03T06:01:22;4.30;99.90
39033;DHT22;24794;51.982;5.878;2023-04-03T06:02:24;4.30;99.90
39033;DHT22;24794;51.982;5.878;2023-04-03T06:03:25;4.30;99.90
39033;DHT22;24794;51.982;5.878;2023-04-03T06:04:26;4.40;99.90
39033;DHT22;24794;51.982;5.878;2023-04-03T06:05:26;4.40;99.90
39033;DHT22;24794;51.982;5.878;2023-04-03T06:06:49;4.40;99.90
39033;DHT22;24794;51.982;5.878;2023-04-03T06:07:51;4.40;99.90
39033;DHT22;24794;51.982;5.878;2023-04-03T06:08:52;4.40;99.90
39033;DHT22;24794;51.982;5.878;2023-04-03T06:09:54;4.40;99.90
39033;DHT22;24794;51.982;5.878;2023-04-03T06:10:55;4.40;99.90
39033;DHT22;24794;51.982;5.878;2023-04-03T06:11:57;4.40;99.90
39033;DHT22;24794;51.982;5.878;2023-04-03T06:13:01;4.40;99.90
39033;DHT22;24794;51.982;5.878;2023-04-03T06:14:01;4.40;99.90
39033;DHT22;24794;51.982;5.878;2023-04-03T06:15:03;4.40;99.90
39033;DHT22;24794;51.982;5.878;2023-04-03T06:16:05;4.40;99.90
39033;DHT22;24794;51.982;5.878;2023-04-03T06:17:06;4.40;99.90
39033;DHT22;24794;51.982;5.878;2023-04-03T06:18:06;4.40;99.90
39033;DHT22;24794;51.982;5.878;2023-04-03T06:19:08;4.40;99.90
39033;DHT22;24794;51.982;5.878;2023-04-03T06:20:10;4.40;99.90
39033;DHT22;24794;51.982;5.878;2023-04-03T06:21:11;4.40;99.90
39033;DHT22;24794;51.982;5.878;2023-04-03T06:22:12;4.40;99.90
39033;DHT22;24794;51.982;5.878;2023-04-03T06:23:13;4.40;99.90
39033;DHT22;24794;51.982;5.878;2023-04-03T06:24:15;4.40;99.90
39033;DHT22;24794;51.982;5.878;2023-04-03T06:25:16;4.40;99.90
39033;DHT22;24794;51.982;5.878;2023-04-03T06:26:19;4.40;99.90
39033;DHT22;24794;51.982;5.878;2023-04-03T06:27:21;4.40;99.90
39033;DHT22;24794;51.982;5.878;2023-04-03T06:28:22;4.40;99.90
39033;DHT22;24794;51.982;5.878;2023-04-03T06:29:23;4.40;99.90
39033;DHT22;24794;51.982;5.878;2023-04-03T06:30:23;4.50;99.90
39033;DHT22;24794;51.982;5.878;2023-04-03T06:31:24;4.50;99.90
39033;DHT22;24794;51.982;5.878;2023-04-03T06:32:24;4.50;99.90
39033;DHT22;24794;51.982;5.878;2023-04-03T06:33:25;4.50;99.90
39033;DHT22;24794;51.982;5.878;2023-04-03T06:34:26;4.50;99.90
39033;DHT22;24794;51.982;5.878;2023-04-03T06:35:27;4.50;99.90
39033;DHT22;24794;51.982;5.878;2023-04-03T06:36:29;4.50;99.90
39033;DHT22;24794;51.982;5.878;2023-04-03T06:37:30;4.50;99.90
39033;DHT22;24794;51.982;5.878;2023-04-03T06:38:33;4.50;99.90